Terminal Aerodrome Forecast
Issued by NWS

Home | Current Version | Previous Version | Text Only | Print | Product List | Glossary On
Versions: 1 2 3 4 5 6 7 8 9 10 11 12 13 14 15 16 17 18 19 20 21 22 23 24 25
000
FTUS43 KGRB 210600 AAA
TAFCWA
TAF AMD
KCWA 210657Z 2107/2206 30010G15KT P6SM SCT008 OVC015
      TEMPO 2108/2112 -SHRA BKN008
     FM211400 35009KT P6SM BKN015 BKN035
     FM211700 34010G17KT P6SM BKN025
     FM212000 34008KT P6SM SCT035
     FM212300 34005KT P6SM SKC
      AMD LTD TO CLD VIS AND WIND TIL 211200=

USA.gov is the U.S. government's official web portal to all federal, state and local government web resources and services.